Thunder radar more information blitzortung!


Radar de pluja more information rain snow radar


Visita la nostra xarxa de llocs de meteo:

Template documentation
and downloads

And another site



No particular awareness of the weather is required.    There are no Weather-warnings

Pagina Historial Weather Underground text

Diari Resum January 8, 2018 Unitats:  Tant    Imperial   Mètric
« Previous Dia
SegĂźent Dia »
Diari Setmana Mensual Anual Personalitzada
  Maxima: Minima: Media:
Temperatura: TemperatureC °F /  -17.8 °C 2.7 °F /  -16.3 °C 6.9 °F /  -13.9 °C
Punt de rosada: DewpointC °F /  -17.8 °C 0.0 °F /  -17.8 °C 2.7 °F /  -16.3 °C
Humitat: Humidity % 66 % 75 %
Wind Speed: WindSpeedKMH mph /  0 km/h - 5 mph /  8 km/h
RĂ fegues de vent: WindSpeedGustKMH mph /  0 km/h - -
Vent:- - SSW
Pression baro: PressurehPa in /  0 hPa 1007.0 in /  34097 hPa -
Precipitacions: 0.0 in /  0 mm    
Historical Graphs
 
 
Dades de taula per January 8, 2018
Temps Temperatura Punt de rosada Pression baro Vent Wind Speed RĂ fegues de vent Humitat Rainfall Rate (Hourly)
TemperatureC °F /  -17.8 °C DewpointC °F /  -17.8 °C PressurehPa in /  0 hPa Calm     Humidity % HourlyPrecipMM in /  0 mm
00:03 4.8 °F /  -15.1 °C 2.3 °F /  -16.5 °C 1007.0 in /  34097 hPa WSW 1.9 mph /  3.1 km/h   84 % 0.0 in /  0 mm
00:05 3.1 °F /  -16.1 °C 0.8 °F /  -17.3 °C 1008.0 in /  34130.9 hPa WSW 3.2 mph /  5.1 km/h 4.8 mph /  7.7 km/h 85 % 0.0 in /  0 mm
00:15 3.1 °F /  -16.1 °C 0.8 °F /  -17.3 °C 1008.0 in /  34130.9 hPa WSW 3.2 mph /  5.1 km/h 3.2 mph /  5.1 km/h 85 % 0.0 in /  0 mm
00:25 3.2 °F /  -16 °C 1.1 °F /  -17.2 °C 1008.0 in /  34130.9 hPa Calm   4.8 mph /  7.7 km/h 86 % 0.0 in /  0 mm
01:05 2.9 °F /  -16.2 °C 0.8 °F /  -17.3 °C 1008.0 in /  34130.9 hPa Calm   1.6 mph /  2.6 km/h 86 % 0.0 in /  0 mm
01:15 2.9 °F /  -16.2 °C 0.9 °F /  -17.3 °C 1008.0 in /  34130.9 hPa Calm     87 % 0.0 in /  0 mm
01:25 2.9 °F /  -16.2 °C 0.9 °F /  -17.3 °C 1008.0 in /  34130.9 hPa Calm   3.2 mph /  5.1 km/h 87 % 0.0 in /  0 mm
01:55 2.7 °F /  -16.3 °C 0.6 °F /  -17.4 °C 1009.0 in /  34164.7 hPa WSW 3.2 mph /  5.1 km/h 3.2 mph /  5.1 km/h 86 % 0.0 in /  0 mm
02:35 3.2 °F /  -16 °C 1.2 °F /  -17.1 °C 1009.0 in /  34164.7 hPa NW 3.2 mph /  5.1 km/h 4.8 mph /  7.7 km/h 87 % 0.0 in /  0 mm
02:55 3.1 °F /  -16.1 °C 1.2 °F /  -17.1 °C 1010.0 in /  34198.6 hPa West 3.2 mph /  5.1 km/h 3.2 mph /  5.1 km/h 87 % 0.0 in /  0 mm
03:05 3.0 °F /  -16.1 °C 1.1 °F /  -17.2 °C 1010.0 in /  34198.6 hPa West 1.6 mph /  2.6 km/h 6.4 mph /  10.3 km/h 87 % 0.0 in /  0 mm
03:15 3.1 °F /  -16.1 °C 1.2 °F /  -17.1 °C 1010.0 in /  34198.6 hPa WSW 1.6 mph /  2.6 km/h 3.2 mph /  5.1 km/h 87 % 0.0 in /  0 mm
03:25 3.3 °F /  -15.9 °C 1.3 °F /  -17.1 °C 1010.0 in /  34198.6 hPa Calm   4.8 mph /  7.7 km/h 87 % 0.0 in /  0 mm
03:45 3.4 °F /  -15.9 °C 1.4 °F /  -17 °C 1010.0 in /  34198.6 hPa West 1.6 mph /  2.6 km/h 3.2 mph /  5.1 km/h 87 % 0.0 in /  0 mm
03:55 3.5 °F /  -15.8 °C 1.6 °F /  -16.9 °C 1009.0 in /  34164.7 hPa Calm   3.2 mph /  5.1 km/h 87 % 0.0 in /  0 mm
04:05 3.7 °F /  -15.7 °C 1.7 °F /  -16.8 °C 1010.0 in /  34198.6 hPa West 1.6 mph /  2.6 km/h 6.4 mph /  10.3 km/h 87 % 0.0 in /  0 mm
04:25 4.0 °F /  -15.6 °C 2.2 °F /  -16.6 °C 1010.0 in /  34198.6 hPa Calm     88 % 0.0 in /  0 mm
04:55 5.2 °F /  -14.9 °C 3.7 °F /  -15.7 °C 1010.0 in /  34198.6 hPa SW 3.2 mph /  5.1 km/h 3.2 mph /  5.1 km/h 90 % 0.0 in /  0 mm
11:07 6.0 °F /  -14.4 °C 4.2 °F /  -15.4 °C 1010.7 in /  34222.3 hPa WSW 5.6 mph /  9 km/h 5.6 mph /  9 km/h 88 % 0.0 in /  0 mm
11:12 6.1 °F /  -14.4 °C 4.1 °F /  -15.5 °C 1010.7 in /  34222.3 hPa SW 4.7 mph /  7.6 km/h 4.7 mph /  7.6 km/h 87 % 0.0 in /  0 mm
11:13 6.1 °F /  -14.4 °C 4.1 °F /  -15.5 °C 1010.7 in /  34222.3 hPa SW 5.6 mph /  9 km/h 5.6 mph /  9 km/h 87 % 0.0 in /  0 mm
11:18 6.3 °F /  -14.3 °C 4.3 °F /  -15.4 °C 1010.7 in /  34222.3 hPa ENE 5.6 mph /  9 km/h 5.6 mph /  9 km/h 87 % 0.0 in /  0 mm
11:23 6.5 °F /  -14.2 °C 4.5 °F /  -15.3 °C 1010.7 in /  34222.3 hPa East 3.7 mph /  6 km/h 3.7 mph /  6 km/h 87 % 0.0 in /  0 mm
11:28 6.6 °F /  -14.1 °C 4.4 °F /  -15.3 °C 1010.7 in /  34222.3 hPa ENE 2.3 mph /  3.7 km/h 2.3 mph /  3.7 km/h 86 % 0.0 in /  0 mm
11:29 6.6 °F /  -14.1 °C 4.4 °F /  -15.3 °C 1010.7 in /  34222.3 hPa WNW 3.5 mph /  5.6 km/h 3.5 mph /  5.6 km/h 86 % 0.0 in /  0 mm
11:34 6.6 °F /  -14.1 °C 4.4 °F /  -15.3 °C 1010.7 in /  34222.3 hPa NE 7.4 mph /  11.9 km/h 7.4 mph /  11.9 km/h 86 % 0.0 in /  0 mm
11:37 6.8 °F /  -14 °C 4.6 °F /  -15.2 °C 1010.0 in /  34198.6 hPa NNE 7.4 mph /  11.9 km/h 7.4 mph /  11.9 km/h 86 % 0.0 in /  0 mm
11:42 6.7 °F /  -14.1 °C 4.3 °F /  -15.4 °C 1010.0 in /  34198.6 hPa NNE 7.9 mph /  12.7 km/h 7.9 mph /  12.7 km/h 85 % 0.0 in /  0 mm
11:45 6.8 °F /  -14 °C 4.4 °F /  -15.3 °C 1010.0 in /  34198.6 hPa North 9.3 mph /  15 km/h 9.3 mph /  15 km/h 85 % 0.0 in /  0 mm
11:50 6.9 °F /  -13.9 °C 4.6 °F /  -15.2 °C 1010.0 in /  34198.6 hPa North 7.4 mph /  11.9 km/h 7.4 mph /  11.9 km/h 85 % 0.0 in /  0 mm
11:52 7.0 °F /  -13.9 °C 4.7 °F /  -15.2 °C 1010.0 in /  34198.6 hPa ENE 7.4 mph /  11.9 km/h 7.4 mph /  11.9 km/h 85 % 0.0 in /  0 mm
11:58 7.1 °F /  -13.8 °C 4.6 °F /  -15.2 °C 1010.0 in /  34198.6 hPa NNE 7.4 mph /  11.9 km/h 7.4 mph /  11.9 km/h 84 % 0.0 in /  0 mm
12:08 7.1 °F /  -13.8 °C 4.2 °F /  -15.4 °C 1010.0 in /  34198.6 hPa ENE 9.3 mph /  15 km/h 9.3 mph /  15 km/h 82 % 0.0 in /  0 mm
12:09 7.0 °F /  -13.9 °C 4.1 °F /  -15.5 °C 1010.0 in /  34198.6 hPa NE 9.3 mph /  15 km/h 9.3 mph /  15 km/h 82 % 0.0 in /  0 mm
12:13 7.2 °F /  -13.8 °C 4.2 °F /  -15.4 °C 1010.0 in /  34198.6 hPa ENE 5.6 mph /  9 km/h 5.6 mph /  9 km/h 81 % 0.0 in /  0 mm
12:18 7.2 °F /  -13.8 °C 4.2 °F /  -15.4 °C 1010.0 in /  34198.6 hPa NNE 5.6 mph /  9 km/h 5.6 mph /  9 km/h 81 % 0.0 in /  0 mm
12:22 7.6 °F /  -13.6 °C 4.6 °F /  -15.2 °C 1010.0 in /  34198.6 hPa NNW 3.7 mph /  6 km/h 3.7 mph /  6 km/h 81 % 0.0 in /  0 mm
12:27 7.8 °F /  -13.4 °C 4.7 °F /  -15.2 °C 1010.0 in /  34198.6 hPa NE 3.7 mph /  6 km/h   81 % 0.0 in /  0 mm
12:29 7.7 °F /  -13.5 °C 4.7 °F /  -15.2 °C 1010.0 in /  34198.6 hPa NE 1.9 mph /  3.1 km/h   81 % 0.0 in /  0 mm
12:34 7.7 °F /  -13.5 °C 4.4 °F /  -15.3 °C 1010.0 in /  34198.6 hPa NNE 4.2 mph /  6.8 km/h 4.2 mph /  6.8 km/h 80 % 0.0 in /  0 mm
12:40 7.8 °F /  -13.4 °C 4.6 °F /  -15.2 °C 1010.0 in /  34198.6 hPa East 1.6 mph /  2.6 km/h 4.8 mph /  7.7 km/h 80 % 0.0 in /  0 mm
12:45 8.0 °F /  -13.3 °C 4.8 °F /  -15.1 °C 1010.0 in /  34198.6 hPa NE 4.7 mph /  7.6 km/h 4.7 mph /  7.6 km/h 80 % 0.0 in /  0 mm
12:51 8.2 °F /  -13.2 °C 4.9 °F /  -15.1 °C 1010.0 in /  34198.6 hPa NNE 7.4 mph /  11.9 km/h 7.4 mph /  11.9 km/h 80 % 0.0 in /  0 mm
12:56 8.1 °F /  -13.3 °C 4.7 °F /  -15.2 °C 1010.0 in /  34198.6 hPa NNE 7.4 mph /  11.9 km/h 7.4 mph /  11.9 km/h 79 % 0.0 in /  0 mm
13:02 8.6 °F /  -13 °C 5.2 °F /  -14.9 °C 1010.0 in /  34198.6 hPa West 3.9 mph /  6.3 km/h 3.9 mph /  6.3 km/h 79 % 0.0 in /  0 mm
13:07 9.0 °F /  -12.8 °C 5.6 °F /  -14.7 °C 1010.0 in /  34198.6 hPa NNW 1.9 mph /  3.1 km/h   79 % 0.0 in /  0 mm
13:12 9.2 °F /  -12.7 °C 5.7 °F /  -14.6 °C 1010.0 in /  34198.6 hPa NE 3.7 mph /  6 km/h 3.7 mph /  6 km/h 79 % 0.0 in /  0 mm
13:18 9.2 °F /  -12.7 °C 5.6 °F /  -14.7 °C 1010.0 in /  34198.6 hPa NNE 5.6 mph /  9 km/h 5.6 mph /  9 km/h 78 % 0.0 in /  0 mm
13:23 9.3 °F /  -12.6 °C 5.7 °F /  -14.6 °C 1009.0 in /  34164.7 hPa NNE 5.6 mph /  9 km/h 5.6 mph /  9 km/h 78 % 0.0 in /  0 mm
13:29 9.5 °F /  -12.5 °C 5.8 °F /  -14.6 °C 1009.0 in /  34164.7 hPa ENE 5.8 mph /  9.3 km/h 5.8 mph /  9.3 km/h 78 % 0.0 in /  0 mm
13:34 9.5 °F /  -12.5 °C 5.7 °F /  -14.6 °C 1009.0 in /  34164.7 hPa NE 5.6 mph /  9 km/h 5.6 mph /  9 km/h 77 % 0.0 in /  0 mm
13:39 9.7 °F /  -12.4 °C 5.8 °F /  -14.6 °C 1008.0 in /  34130.9 hPa NE 5.6 mph /  9 km/h 5.6 mph /  9 km/h 77 % 0.0 in /  0 mm
13:42 9.9 °F /  -12.3 °C 6.1 °F /  -14.4 °C 1008.0 in /  34130.9 hPa NNE 4.2 mph /  6.8 km/h 4.2 mph /  6.8 km/h 77 % 0.0 in /  0 mm
13:45 9.9 °F /  -12.3 °C 5.9 °F /  -14.5 °C 1008.0 in /  34130.9 hPa NE 3.9 mph /  6.3 km/h 5.8 mph /  9.3 km/h 76 % 0.0 in /  0 mm
13:49 10.0 °F /  -12.2 °C 5.9 °F /  -14.5 °C 1008.0 in /  34130.9 hPa NNE 6.4 mph /  10.3 km/h 6.4 mph /  10.3 km/h 76 % 0.0 in /  0 mm
13:53 10.0 °F /  -12.2 °C 5.6 °F /  -14.7 °C 1008.0 in /  34130.9 hPa ENE 9.3 mph /  15 km/h 9.3 mph /  15 km/h 74 % 0.0 in /  0 mm
13:58 10.1 °F /  -12.2 °C 5.7 °F /  -14.6 °C 1008.0 in /  34130.9 hPa NNE 7.4 mph /  11.9 km/h 7.4 mph /  11.9 km/h 74 % 0.0 in /  0 mm
14:02 10.1 °F /  -12.2 °C 5.7 °F /  -14.6 °C 1008.0 in /  34130.9 hPa NE 9.7 mph /  15.6 km/h 9.7 mph /  15.6 km/h 74 % 0.0 in /  0 mm
14:07 10.0 °F /  -12.2 °C 5.2 °F /  -14.9 °C 1008.0 in /  34130.9 hPa NNW 9.3 mph /  15 km/h 9.3 mph /  15 km/h 72 % 0.0 in /  0 mm
14:12 10.0 °F /  -12.2 °C 5.4 °F /  -14.8 °C 1008.0 in /  34130.9 hPa ENE 5.6 mph /  9 km/h 5.6 mph /  9 km/h 73 % 0.0 in /  0 mm
14:17 10.0 °F /  -12.2 °C 5.4 °F /  -14.8 °C 1008.0 in /  34130.9 hPa NE 5.6 mph /  9 km/h 5.6 mph /  9 km/h 73 % 0.0 in /  0 mm
14:23 10.2 °F /  -12.1 °C 5.6 °F /  -14.7 °C 1008.0 in /  34130.9 hPa ENE 5.6 mph /  9 km/h 5.6 mph /  9 km/h 73 % 0.0 in /  0 mm
14:28 10.4 °F /  -12 °C 5.8 °F /  -14.6 °C 1008.0 in /  34130.9 hPa NNE 5.6 mph /  9 km/h 5.6 mph /  9 km/h 73 % 0.0 in /  0 mm
14:34 10.3 °F /  -12.1 °C 5.4 °F /  -14.8 °C 1008.0 in /  34130.9 hPa NE 7.9 mph /  12.7 km/h 7.9 mph /  12.7 km/h 72 % 0.0 in /  0 mm
14:40 10.3 °F /  -12.1 °C 5.3 °F /  -14.8 °C 1008.0 in /  34130.9 hPa NE 4.8 mph /  7.7 km/h 8.0 mph /  12.9 km/h 71 % 0.0 in /  0 mm
14:47 10.3 °F /  -12.1 °C 5.1 °F /  -14.9 °C 1008.0 in /  34130.9 hPa NNE 7.4 mph /  11.9 km/h 7.4 mph /  11.9 km/h 70 % 0.0 in /  0 mm
14:52 10.4 °F /  -12 °C 5.2 °F /  -14.9 °C 1008.0 in /  34130.9 hPa NNW 3.7 mph /  6 km/h 3.7 mph /  6 km/h 70 % 0.0 in /  0 mm
14:56 10.4 °F /  -12 °C 5.2 °F /  -14.9 °C 1008.0 in /  34130.9 hPa NNE 5.6 mph /  9 km/h 5.6 mph /  9 km/h 70 % 0.0 in /  0 mm
15:01 10.3 °F /  -12.1 °C 5.1 °F /  -14.9 °C 1008.0 in /  34130.9 hPa NNE 5.6 mph /  9 km/h 5.6 mph /  9 km/h 70 % 0.0 in /  0 mm
15:06 10.3 °F /  -12.1 °C 4.8 °F /  -15.1 °C 1008.0 in /  34130.9 hPa NNE 7.4 mph /  11.9 km/h 7.4 mph /  11.9 km/h 69 % 0.0 in /  0 mm
15:08 10.3 °F /  -12.1 °C 4.8 °F /  -15.1 °C 1008.0 in /  34130.9 hPa NE 5.6 mph /  9 km/h 5.6 mph /  9 km/h 69 % 0.0 in /  0 mm
15:13 10.4 °F /  -12 °C 4.9 °F /  -15.1 °C 1008.0 in /  34130.9 hPa ENE 7.4 mph /  11.9 km/h 7.4 mph /  11.9 km/h 69 % 0.0 in /  0 mm
15:18 10.4 °F /  -12 °C 4.9 °F /  -15.1 °C 1008.0 in /  34130.9 hPa NE 7.9 mph /  12.7 km/h 7.9 mph /  12.7 km/h 69 % 0.0 in /  0 mm
15:23 10.5 °F /  -11.9 °C 5.1 °F /  -14.9 °C 1008.0 in /  34130.9 hPa NNW 5.6 mph /  9 km/h 5.6 mph /  9 km/h 69 % 0.0 in /  0 mm
15:29 10.6 °F /  -11.9 °C 5.2 °F /  -14.9 °C 1008.0 in /  34130.9 hPa NNE 3.7 mph /  6 km/h 3.7 mph /  6 km/h 69 % 0.0 in /  0 mm
15:34 10.7 °F /  -11.8 °C 5.4 °F /  -14.8 °C 1008.0 in /  34130.9 hPa SW 3.7 mph /  6 km/h 3.7 mph /  6 km/h 70 % 0.0 in /  0 mm
15:35 10.8 °F /  -11.8 °C 5.6 °F /  -14.7 °C 1008.0 in /  34130.9 hPa NNW 3.7 mph /  6 km/h 3.7 mph /  6 km/h 70 % 0.0 in /  0 mm
15:40 10.9 °F /  -11.7 °C 5.7 °F /  -14.6 °C 1008.0 in /  34130.9 hPa West 5.8 mph /  9.3 km/h 5.8 mph /  9.3 km/h 70 % 0.0 in /  0 mm
15:42 10.9 °F /  -11.7 °C 5.7 °F /  -14.6 °C 1008.0 in /  34130.9 hPa SW 5.6 mph /  9 km/h 5.6 mph /  9 km/h 70 % 0.0 in /  0 mm
15:47 10.9 °F /  -11.7 °C 5.7 °F /  -14.6 °C 1008.0 in /  34130.9 hPa West 13.0 mph /  20.9 km/h 13.0 mph /  20.9 km/h 70 % 0.0 in /  0 mm
15:52 11.0 °F /  -11.7 °C 5.5 °F /  -14.7 °C 1008.0 in /  34130.9 hPa West 9.3 mph /  15 km/h 9.3 mph /  15 km/h 69 % 0.0 in /  0 mm
15:58 10.9 °F /  -11.7 °C 5.2 °F /  -14.9 °C 1008.0 in /  34130.9 hPa West 9.3 mph /  15 km/h 9.3 mph /  15 km/h 68 % 0.0 in /  0 mm
16:03 10.9 °F /  -11.7 °C 5.2 °F /  -14.9 °C 1008.0 in /  34130.9 hPa WSW 7.4 mph /  11.9 km/h 7.4 mph /  11.9 km/h 68 % 0.0 in /  0 mm
16:09 10.6 °F /  -11.9 °C 4.9 °F /  -15.1 °C 1008.0 in /  34130.9 hPa West 7.4 mph /  11.9 km/h 7.4 mph /  11.9 km/h 68 % 0.0 in /  0 mm
16:18 10.1 °F /  -12.2 °C 4.2 °F /  -15.4 °C 1008.0 in /  34130.9 hPa West 7.4 mph /  11.9 km/h 7.4 mph /  11.9 km/h 67 % 0.0 in /  0 mm
16:20 10.1 °F /  -12.2 °C 4.2 °F /  -15.4 °C 1008.0 in /  34130.9 hPa West 10.3 mph /  16.6 km/h 10.3 mph /  16.6 km/h 67 % 0.0 in /  0 mm
16:27 9.7 °F /  -12.4 °C 3.9 °F /  -15.6 °C 1009.0 in /  34164.7 hPa West 13.0 mph /  20.9 km/h 13.0 mph /  20.9 km/h 67 % 0.0 in /  0 mm
16:32 9.5 °F /  -12.5 °C 3.7 °F /  -15.7 °C 1009.0 in /  34164.7 hPa WSW 11.1 mph /  17.9 km/h 11.1 mph /  17.9 km/h 67 % 0.0 in /  0 mm
16:43 8.9 °F /  -12.8 °C 2.9 °F /  -16.2 °C 1009.0 in /  34164.7 hPa West 11.1 mph /  17.9 km/h 11.1 mph /  17.9 km/h 66 % 0.0 in /  0 mm
16:46 8.8 °F /  -12.9 °C 3.0 °F /  -16.1 °C 1009.0 in /  34164.7 hPa WSW 7.4 mph /  11.9 km/h 7.4 mph /  11.9 km/h 67 % 0.0 in /  0 mm
16:51 8.8 °F /  -12.9 °C 3.0 °F /  -16.1 °C 1009.0 in /  34164.7 hPa WSW 5.8 mph /  9.3 km/h 5.8 mph /  9.3 km/h 67 % 0.0 in /  0 mm
16:56 8.6 °F /  -13 °C 2.8 °F /  -16.2 °C 1009.0 in /  34164.7 hPa WSW 5.6 mph /  9 km/h 5.6 mph /  9 km/h 67 % 0.0 in /  0 mm
17:03 8.3 °F /  -13.2 °C 2.7 °F /  -16.3 °C 1009.0 in /  34164.7 hPa WSW 9.3 mph /  15 km/h 9.3 mph /  15 km/h 68 % 0.0 in /  0 mm
17:09 8.1 °F /  -13.3 °C 2.6 °F /  -16.3 °C 1010.0 in /  34198.6 hPa WNW 9.3 mph /  15 km/h 9.3 mph /  15 km/h 68 % 0.0 in /  0 mm
17:15 7.9 °F /  -13.4 °C 2.3 °F /  -16.5 °C 1010.0 in /  34198.6 hPa West 9.5 mph /  15.3 km/h 9.5 mph /  15.3 km/h 68 % 0.0 in /  0 mm
17:19 7.9 °F /  -13.4 °C 2.3 °F /  -16.5 °C 1010.0 in /  34198.6 hPa West 7.4 mph /  11.9 km/h 7.4 mph /  11.9 km/h 68 % 0.0 in /  0 mm
17:25 7.8 °F /  -13.4 °C 2.3 °F /  -16.5 °C 1010.0 in /  34198.6 hPa WSW 7.4 mph /  11.9 km/h 7.4 mph /  11.9 km/h 68 % 0.0 in /  0 mm
17:30 7.6 °F /  -13.6 °C 2.1 °F /  -16.6 °C 1010.0 in /  34198.6 hPa WSW 11.1 mph /  17.9 km/h 11.1 mph /  17.9 km/h 68 % 0.0 in /  0 mm
17:35 7.5 °F /  -13.6 °C 2.2 °F /  -16.6 °C 1010.0 in /  34198.6 hPa West 9.3 mph /  15 km/h 9.3 mph /  15 km/h 69 % 0.0 in /  0 mm
17:37 7.5 °F /  -13.6 °C 2.2 °F /  -16.6 °C 1010.0 in /  34198.6 hPa West 7.6 mph /  12.2 km/h 7.6 mph /  12.2 km/h 69 % 0.0 in /  0 mm
17:42 7.3 °F /  -13.7 °C 2.0 °F /  -16.7 °C 1010.0 in /  34198.6 hPa West 12.2 mph /  19.6 km/h 12.2 mph /  19.6 km/h 69 % 0.0 in /  0 mm
17:46 7.3 °F /  -13.7 °C 2.0 °F /  -16.7 °C 1010.0 in /  34198.6 hPa West 11.1 mph /  17.9 km/h 11.1 mph /  17.9 km/h 69 % 0.0 in /  0 mm
17:48 7.2 °F /  -13.8 °C 1.9 °F /  -16.7 °C 1010.0 in /  34198.6 hPa WNW 11.1 mph /  17.9 km/h 11.1 mph /  17.9 km/h 69 % 0.0 in /  0 mm
17:53 7.1 °F /  -13.8 °C 1.8 °F /  -16.8 °C 1010.0 in /  34198.6 hPa WSW 7.4 mph /  11.9 km/h 7.4 mph /  11.9 km/h 69 % 0.0 in /  0 mm
17:58 7.0 °F /  -13.9 °C 1.9 °F /  -16.7 °C 1010.0 in /  34198.6 hPa SW 7.4 mph /  11.9 km/h 7.4 mph /  11.9 km/h 70 % 0.0 in /  0 mm
18:03 7.0 °F /  -13.9 °C 1.9 °F /  -16.7 °C 1010.0 in /  34198.6 hPa West 9.3 mph /  15 km/h 9.3 mph /  15 km/h 70 % 0.0 in /  0 mm
18:07 6.9 °F /  -13.9 °C 1.8 °F /  -16.8 °C 1010.0 in /  34198.6 hPa WSW 7.4 mph /  11.9 km/h 7.4 mph /  11.9 km/h 70 % 0.0 in /  0 mm
18:12 6.9 °F /  -13.9 °C 1.8 °F /  -16.8 °C 1010.0 in /  34198.6 hPa West 4.7 mph /  7.6 km/h 4.7 mph /  7.6 km/h 70 % 0.0 in /  0 mm
18:16 6.8 °F /  -14 °C 1.7 °F /  -16.8 °C 1010.0 in /  34198.6 hPa West 3.7 mph /  6 km/h 4.2 mph /  6.8 km/h 70 % 0.0 in /  0 mm
18:21 6.8 °F /  -14 °C 1.7 °F /  -16.8 °C 1010.0 in /  34198.6 hPa WSW 7.4 mph /  11.9 km/h 7.4 mph /  11.9 km/h 70 % 0.0 in /  0 mm
18:24 6.8 °F /  -14 °C 1.7 °F /  -16.8 °C 1010.0 in /  34198.6 hPa West 9.3 mph /  15 km/h 9.3 mph /  15 km/h 70 % 0.0 in /  0 mm
18:25 4.9 °F /  -15.1 °C 0.8 °F /  -17.3 °C 1011.7 in /  34256.2 hPa WSW 3.2 mph /  5.1 km/h 4.8 mph /  7.7 km/h 75 % 0.0 in /  0 mm
18:29 6.7 °F /  -14.1 °C 1.6 °F /  -16.9 °C 1010.0 in /  34198.6 hPa WNW 9.7 mph /  15.6 km/h 9.7 mph /  15.6 km/h 70 % 0.0 in /  0 mm
18:30 6.7 °F /  -14.1 °C 1.6 °F /  -16.9 °C 1010.0 in /  34198.6 hPa WSW 8.0 mph /  12.9 km/h 9.7 mph /  15.6 km/h 70 % 0.0 in /  0 mm
18:35 6.7 °F /  -14.1 °C 1.6 °F /  -16.9 °C 1010.0 in /  34198.6 hPa West 5.6 mph /  9 km/h 5.6 mph /  9 km/h 70 % 0.0 in /  0 mm
18:39 6.7 °F /  -14.1 °C 1.6 °F /  -16.9 °C 1010.0 in /  34198.6 hPa West 3.2 mph /  5.1 km/h   70 % 0.0 in /  0 mm
18:44 6.7 °F /  -14.1 °C 1.6 °F /  -16.9 °C 1010.0 in /  34198.6 hPa WSW 5.6 mph /  9 km/h   70 % 0.0 in /  0 mm
18:45 6.6 °F /  -14.1 °C 1.5 °F /  -16.9 °C 1010.0 in /  34198.6 hPa WSW 3.7 mph /  6 km/h 3.7 mph /  6 km/h 70 % 0.0 in /  0 mm
18:50 6.6 °F /  -14.1 °C 1.7 °F /  -16.8 °C 1010.0 in /  34198.6 hPa WSW 3.7 mph /  6 km/h 3.7 mph /  6 km/h 71 % 0.0 in /  0 mm
18:55 6.6 °F /  -14.1 °C 1.7 °F /  -16.8 °C 1010.0 in /  34198.6 hPa WSW 2.6 mph /  4.2 km/h   71 % 0.0 in /  0 mm
19:00 6.6 °F /  -14.1 °C 1.7 °F /  -16.8 °C 1010.0 in /  34198.6 hPa WSW 3.7 mph /  6 km/h 3.7 mph /  6 km/h 71 % 0.0 in /  0 mm
19:03 6.6 °F /  -14.1 °C 1.7 °F /  -16.8 °C 1010.0 in /  34198.6 hPa SW 3.7 mph /  6 km/h 3.7 mph /  6 km/h 71 % 0.0 in /  0 mm
19:05 4.6 °F /  -15.2 °C 0.6 °F /  -17.4 °C 1010.7 in /  34222.3 hPa SW 1.6 mph /  2.6 km/h 4.8 mph /  7.7 km/h 75 % 0.0 in /  0 mm
19:06 6.6 °F /  -14.1 °C 1.7 °F /  -16.8 °C 1010.7 in /  34222.3 hPa WSW 5.8 mph /  9.3 km/h 5.8 mph /  9.3 km/h 71 % 0.0 in /  0 mm
19:10 6.5 °F /  -14.2 °C 1.6 °F /  -16.9 °C 1010.7 in /  34222.3 hPa West 7.4 mph /  11.9 km/h 7.4 mph /  11.9 km/h 71 % 0.0 in /  0 mm
19:15 6.5 °F /  -14.2 °C 1.6 °F /  -16.9 °C 1010.7 in /  34222.3 hPa WSW 3.7 mph /  6 km/h 3.7 mph /  6 km/h 71 % 0.0 in /  0 mm
19:20 6.5 °F /  -14.2 °C 1.6 °F /  -16.9 °C 1010.0 in /  34198.6 hPa SW 3.7 mph /  6 km/h 3.7 mph /  6 km/h 71 % 0.0 in /  0 mm
19:22 6.5 °F /  -14.2 °C 1.8 °F /  -16.8 °C 1010.0 in /  34198.6 hPa SW 1.9 mph /  3.1 km/h   72 % 0.0 in /  0 mm
19:23 6.5 °F /  -14.2 °C 1.8 °F /  -16.8 °C 1010.0 in /  34198.6 hPa SW 1.9 mph /  3.1 km/h   72 % 0.0 in /  0 mm
19:25 4.5 °F /  -15.3 °C 0.4 °F /  -17.6 °C 1011.7 in /  34256.2 hPa WSW 3.2 mph /  5.1 km/h 4.8 mph /  7.7 km/h 75 % 0.0 in /  0 mm
19:28 6.5 °F /  -14.2 °C 1.8 °F /  -16.8 °C 1010.0 in /  34198.6 hPa South 1.9 mph /  3.1 km/h 3.2 mph /  5.1 km/h 72 % 0.0 in /  0 mm
19:29 6.5 °F /  -14.2 °C 1.8 °F /  -16.8 °C 1010.0 in /  34198.6 hPa South 3.7 mph /  6 km/h 3.7 mph /  6 km/h 72 % 0.0 in /  0 mm
19:35 6.5 °F /  -14.2 °C 1.6 °F /  -16.9 °C 1010.0 in /  34198.6 hPa WNW 3.2 mph /  5.1 km/h 8.0 mph /  12.9 km/h 71 % 0.0 in /  0 mm
19:36 6.6 °F /  -14.1 °C 1.7 °F /  -16.8 °C 1010.7 in /  34222.3 hPa WNW 3.7 mph /  6 km/h 3.7 mph /  6 km/h 71 % 0.0 in /  0 mm
19:41 6.6 °F /  -14.1 °C 1.9 °F /  -16.7 °C 1010.7 in /  34222.3 hPa NW 5.6 mph /  9 km/h 5.6 mph /  9 km/h 72 % 0.0 in /  0 mm
19:45 4.6 °F /  -15.2 °C 0.6 °F /  -17.4 °C 1011.7 in /  34256.2 hPa West 3.2 mph /  5.1 km/h 6.4 mph /  10.3 km/h 75 % 0.0 in /  0 mm
19:46 6.6 °F /  -14.1 °C 1.9 °F /  -16.7 °C 1010.7 in /  34222.3 hPa WSW 3.9 mph /  6.3 km/h 3.9 mph /  6.3 km/h 72 % 0.0 in /  0 mm
19:48 6.6 °F /  -14.1 °C 1.9 °F /  -16.7 °C 1010.7 in /  34222.3 hPa WSW 3.7 mph /  6 km/h 3.7 mph /  6 km/h 72 % 0.0 in /  0 mm
19:53 6.5 °F /  -14.2 °C 1.8 °F /  -16.8 °C 1010.7 in /  34222.3 hPa WSW 1.9 mph /  3.1 km/h   72 % 0.0 in /  0 mm
19:55 4.6 °F /  -15.2 °C 0.6 °F /  -17.4 °C 1011.7 in /  34256.2 hPa West 3.2 mph /  5.1 km/h 9.7 mph /  15.6 km/h 75 % 0.0 in /  0 mm
19:58 6.5 °F /  -14.2 °C 1.8 °F /  -16.8 °C 1010.7 in /  34222.3 hPa WSW 3.7 mph /  6 km/h 3.7 mph /  6 km/h 72 % 0.0 in /  0 mm
20:00 6.5 °F /  -14.2 °C 1.8 °F /  -16.8 °C 1010.7 in /  34222.3 hPa WSW 1.9 mph /  3.1 km/h   72 % 0.0 in /  0 mm
20:05 6.4 °F /  -14.2 °C 1.7 °F /  -16.8 °C 1010.0 in /  34198.6 hPa WSW 2.6 mph /  4.2 km/h 2.6 mph /  4.2 km/h 72 % 0.0 in /  0 mm
20:10 6.4 °F /  -14.2 °C 1.7 °F /  -16.8 °C 1010.0 in /  34198.6 hPa WSW 5.6 mph /  9 km/h 5.6 mph /  9 km/h 72 % 0.0 in /  0 mm
20:12 6.4 °F /  -14.2 °C 1.7 °F /  -16.8 °C 1010.0 in /  34198.6 hPa WSW 5.6 mph /  9 km/h 5.6 mph /  9 km/h 72 % 0.0 in /  0 mm
20:15 4.5 °F /  -15.3 °C 0.4 °F /  -17.6 °C 1011.7 in /  34256.2 hPa WSW 1.6 mph /  2.6 km/h 3.2 mph /  5.1 km/h 75 % 0.0 in /  0 mm
20:17 6.4 °F /  -14.2 °C 1.7 °F /  -16.8 °C 1010.0 in /  34198.6 hPa WSW 4.2 mph /  6.8 km/h 4.2 mph /  6.8 km/h 72 % 0.0 in /  0 mm
20:18 6.4 °F /  -14.2 °C 1.7 °F /  -16.8 °C 1010.0 in /  34198.6 hPa WSW 3.9 mph /  6.3 km/h 4.2 mph /  6.8 km/h 72 % 0.0 in /  0 mm
20:24 6.4 °F /  -14.2 °C 1.7 °F /  -16.8 °C 1010.7 in /  34222.3 hPa WSW 4.2 mph /  6.8 km/h 4.2 mph /  6.8 km/h 72 % 0.0 in /  0 mm
20:25 4.4 °F /  -15.3 °C 0.3 °F /  -17.6 °C 1011.7 in /  34256.2 hPa WSW 1.6 mph /  2.6 km/h 3.2 mph /  5.1 km/h 75 % 0.0 in /  0 mm
20:28 6.4 °F /  -14.2 °C 1.9 °F /  -16.7 °C 1010.7 in /  34222.3 hPa WSW 3.7 mph /  6 km/h 3.9 mph /  6.3 km/h 73 % 0.0 in /  0 mm
20:33 6.3 °F /  -14.3 °C 1.8 °F /  -16.8 °C 1010.7 in /  34222.3 hPa WSW 9.3 mph /  15 km/h 9.3 mph /  15 km/h 73 % 0.0 in /  0 mm
20:35 4.4 °F /  -15.3 °C 0.3 °F /  -17.6 °C 1011.7 in /  34256.2 hPa WSW 1.6 mph /  2.6 km/h 4.8 mph /  7.7 km/h 75 % 0.0 in /  0 mm
20:38 6.3 °F /  -14.3 °C 1.8 °F /  -16.8 °C 1010.7 in /  34222.3 hPa WSW 5.8 mph /  9.3 km/h 5.8 mph /  9.3 km/h 73 % 0.0 in /  0 mm
20:43 6.3 °F /  -14.3 °C 1.8 °F /  -16.8 °C 1010.7 in /  34222.3 hPa West 7.2 mph /  11.6 km/h 7.2 mph /  11.6 km/h 73 % 0.0 in /  0 mm
20:45 4.4 °F /  -15.3 °C 0.3 °F /  -17.6 °C 1011.7 in /  34256.2 hPa WSW 4.8 mph /  7.7 km/h 6.4 mph /  10.3 km/h 75 % 0.0 in /  0 mm
20:46 6.3 °F /  -14.3 °C 1.8 °F /  -16.8 °C 1010.7 in /  34222.3 hPa West 3.7 mph /  6 km/h 3.7 mph /  6 km/h 73 % 0.0 in /  0 mm
20:51 6.3 °F /  -14.3 °C 1.8 °F /  -16.8 °C 1010.7 in /  34222.3 hPa WSW 2.3 mph /  3.7 km/h 2.3 mph /  3.7 km/h 73 % 0.0 in /  0 mm
20:55 4.5 °F /  -15.3 °C 0.4 °F /  -17.6 °C 1011.7 in /  34256.2 hPa WSW 4.8 mph /  7.7 km/h 6.4 mph /  10.3 km/h 75 % 0.0 in /  0 mm
20:56 6.3 °F /  -14.3 °C 1.8 °F /  -16.8 °C 1010.7 in /  34222.3 hPa WSW 9.3 mph /  15 km/h 9.3 mph /  15 km/h 73 % 0.0 in /  0 mm
20:58 6.3 °F /  -14.3 °C 1.8 °F /  -16.8 °C 1010.7 in /  34222.3 hPa WSW 3.7 mph /  6 km/h 3.7 mph /  6 km/h 73 % 0.0 in /  0 mm
21:03 6.2 °F /  -14.3 °C 1.7 °F /  -16.8 °C 1010.7 in /  34222.3 hPa West 3.7 mph /  6 km/h 3.7 mph /  6 km/h 73 % 0.0 in /  0 mm
21:05 4.6 °F /  -15.2 °C 0.6 °F /  -17.4 °C 1012.8 in /  34293.4 hPa WSW 4.8 mph /  7.7 km/h 6.4 mph /  10.3 km/h 75 % 0.0 in /  0 mm
21:07 6.2 °F /  -14.3 °C 1.7 °F /  -16.8 °C 1010.7 in /  34222.3 hPa West 3.7 mph /  6 km/h   73 % 0.0 in /  0 mm
21:13 6.2 °F /  -14.3 °C 1.7 °F /  -16.8 °C 1010.7 in /  34222.3 hPa WNW 5.6 mph /  9 km/h 5.6 mph /  9 km/h 73 % 0.0 in /  0 mm
21:19 6.2 °F /  -14.3 °C 1.7 °F /  -16.8 °C 1010.7 in /  34222.3 hPa WSW 5.6 mph /  9 km/h 5.6 mph /  9 km/h 73 % 0.0 in /  0 mm
21:25 6.2 °F /  -14.3 °C 1.7 °F /  -16.8 °C 1010.7 in /  34222.3 hPa West 7.4 mph /  11.9 km/h 7.4 mph /  11.9 km/h 73 % 0.0 in /  0 mm
21:30 6.2 °F /  -14.3 °C 1.7 °F /  -16.8 °C 1010.7 in /  34222.3 hPa West 4.2 mph /  6.8 km/h 4.2 mph /  6.8 km/h 73 % 0.0 in /  0 mm
21:35 4.8 °F /  -15.1 °C 0.7 °F /  -17.4 °C 1012.8 in /  34293.4 hPa WSW 1.6 mph /  2.6 km/h 9.7 mph /  15.6 km/h 75 % 0.0 in /  0 mm
21:37 6.2 °F /  -14.3 °C 1.7 °F /  -16.8 °C 1010.7 in /  34222.3 hPa NW 3.7 mph /  6 km/h 3.7 mph /  6 km/h 73 % 0.0 in /  0 mm
21:45 6.1 °F /  -14.4 °C 1.6 °F /  -16.9 °C 1010.7 in /  34222.3 hPa WSW 3.7 mph /  6 km/h 3.7 mph /  6 km/h 73 % 0.0 in /  0 mm
21:51 6.1 °F /  -14.4 °C 1.6 °F /  -16.9 °C 1010.7 in /  34222.3 hPa West 3.7 mph /  6 km/h 3.7 mph /  6 km/h 73 % 0.0 in /  0 mm
21:55 4.8 °F /  -15.1 °C 0.7 °F /  -17.4 °C 1012.8 in /  34293.4 hPa WSW 1.6 mph /  2.6 km/h 4.8 mph /  7.7 km/h 75 % 0.0 in /  0 mm
22:01 6.0 °F /  -14.4 °C 1.7 °F /  -16.8 °C 1010.7 in /  34222.3 hPa Calm     74 % 0.0 in /  0 mm
22:05 4.8 °F /  -15.1 °C 0.7 °F /  -17.4 °C 1012.8 in /  34293.4 hPa WSW 4.8 mph /  7.7 km/h 8.0 mph /  12.9 km/h 75 % 0.0 in /  0 mm
22:07 5.9 °F /  -14.5 °C 1.6 °F /  -16.9 °C 1010.7 in /  34222.3 hPa West 1.9 mph /  3.1 km/h 1.9 mph /  3.1 km/h 74 % 0.0 in /  0 mm
22:15 5.9 °F /  -14.5 °C 1.6 °F /  -16.9 °C 1010.7 in /  34222.3 hPa West 2.6 mph /  4.2 km/h 2.6 mph /  4.2 km/h 74 % 0.0 in /  0 mm
22:20 6.0 °F /  -14.4 °C 1.7 °F /  -16.8 °C 1010.0 in /  34198.6 hPa West 3.7 mph /  6 km/h 3.7 mph /  6 km/h 74 % 0.0 in /  0 mm
22:22 6.0 °F /  -14.4 °C 1.7 °F /  -16.8 °C 1010.0 in /  34198.6 hPa West 5.6 mph /  9 km/h 5.6 mph /  9 km/h 74 % 0.0 in /  0 mm
22:25 4.7 °F /  -15.2 °C 0.4 °F /  -17.6 °C 1012.8 in /  34293.4 hPa West 8.0 mph /  12.9 km/h 12.9 mph /  20.8 km/h 74 % 0.0 in /  0 mm
22:28 5.9 °F /  -14.5 °C 1.6 °F /  -16.9 °C 1010.0 in /  34198.6 hPa West 3.7 mph /  6 km/h   74 % 0.0 in /  0 mm
22:33 5.9 °F /  -14.5 °C 1.6 °F /  -16.9 °C 1010.0 in /  34198.6 hPa WNW 3.7 mph /  6 km/h 3.7 mph /  6 km/h 74 % 0.0 in /  0 mm
22:40 5.9 °F /  -14.5 °C 1.6 °F /  -16.9 °C 1010.7 in /  34222.3 hPa WNW 1.9 mph /  3.1 km/h 1.9 mph /  3.1 km/h 74 % 0.0 in /  0 mm
22:45 4.6 °F /  -15.2 °C 0.3 °F /  -17.6 °C 1012.8 in /  34293.4 hPa West 3.2 mph /  5.1 km/h 6.4 mph /  10.3 km/h 74 % 0.0 in /  0 mm
22:46 5.8 °F /  -14.6 °C 1.5 °F /  -16.9 °C 1010.7 in /  34222.3 hPa WNW 1.9 mph /  3.1 km/h   74 % 0.0 in /  0 mm
22:54 5.8 °F /  -14.6 °C 1.5 °F /  -16.9 °C 1011.7 in /  34256.2 hPa West 1.9 mph /  3.1 km/h 1.9 mph /  3.1 km/h 74 % 0.0 in /  0 mm
22:55 4.5 °F /  -15.3 °C 0.3 °F /  -17.6 °C 1013.8 in /  34327.3 hPa West 1.6 mph /  2.6 km/h 6.4 mph /  10.3 km/h 74 % 0.0 in /  0 mm
22:59 5.8 °F /  -14.6 °C 1.5 °F /  -16.9 °C 1011.7 in /  34256.2 hPa West 3.7 mph /  6 km/h 3.7 mph /  6 km/h 74 % 0.0 in /  0 mm
23:11 5.6 °F /  -14.7 °C 1.3 °F /  -17.1 °C 1011.7 in /  34256.2 hPa West 2.6 mph /  4.2 km/h 2.6 mph /  4.2 km/h 74 % 0.0 in /  0 mm
23:16 5.5 °F /  -14.7 °C 1.2 °F /  -17.1 °C 1011.7 in /  34256.2 hPa West 3.7 mph /  6 km/h   74 % 0.0 in /  0 mm
23:23 5.4 °F /  -14.8 °C 1.1 °F /  -17.2 °C 1011.7 in /  34256.2 hPa West 3.7 mph /  6 km/h 3.7 mph /  6 km/h 74 % 0.0 in /  0 mm
23:25 4.2 °F /  -15.4 °C 0.0 °F /  -17.8 °C 1013.8 in /  34327.3 hPa WSW 3.2 mph /  5.1 km/h 4.8 mph /  7.7 km/h 74 % 0.0 in /  0 mm
23:28 5.3 °F /  -14.8 °C 1.2 °F /  -17.1 °C 1011.7 in /  34256.2 hPa West 3.7 mph /  6 km/h 3.7 mph /  6 km/h 75 % 0.0 in /  0 mm
23:29 5.3 °F /  -14.8 °C 1.2 °F /  -17.1 °C 1011.7 in /  34256.2 hPa WSW 3.9 mph /  6.3 km/h 3.9 mph /  6.3 km/h 75 % 0.0 in /  0 mm
23:35 5.2 °F /  -14.9 °C 1.1 °F /  -17.2 °C 1011.7 in /  34256.2 hPa WSW 5.6 mph /  9 km/h 5.6 mph /  9 km/h 75 % 0.0 in /  0 mm
23:40 5.3 °F /  -14.8 °C 1.1 °F /  -17.2 °C 1011.7 in /  34256.2 hPa WSW 7.4 mph /  11.9 km/h 7.4 mph /  11.9 km/h 74 % 0.0 in /  0 mm
23:45 5.1 °F /  -14.9 °C 1.1 °F /  -17.2 °C 1011.7 in /  34256.2 hPa WSW 3.7 mph /  6 km/h 3.7 mph /  6 km/h 75 % 0.0 in /  0 mm
23:46 5.1 °F /  -14.9 °C 1.1 °F /  -17.2 °C 1011.7 in /  34256.2 hPa WSW 4.2 mph /  6.8 km/h 4.2 mph /  6.8 km/h 75 % 0.0 in /  0 mm
23:52 5.0 °F /  -15 °C 0.9 °F /  -17.3 °C 1011.7 in /  34256.2 hPa WSW 5.6 mph /  9 km/h 5.6 mph /  9 km/h 75 % 0.0 in /  0 mm
23:53 5.0 °F /  -15 °C 0.9 °F /  -17.3 °C 1011.7 in /  34256.2 hPa WSW 3.7 mph /  6 km/h 3.7 mph /  6 km/h 75 % 0.0 in /  0 mm
23:54 5.0 °F /  -15 °C 0.9 °F /  -17.3 °C 1011.7 in /  34256.2 hPa WSW 3.9 mph /  6.3 km/h 3.9 mph /  6.3 km/h 75 % 0.0 in /  0 mm
23:55 5.0 °F /  -15 °C 0.9 °F /  -17.3 °C 1011.7 in /  34256.2 hPa WSW 3.2 mph /  5.1 km/h 4.8 mph /  7.7 km/h 75 % 0.0 in /  0 mm
23:56 5.0 °F /  -15 °C 0.9 °F /  -17.3 °C 1011.7 in /  34256.2 hPa West 5.3 mph /  8.5 km/h 5.3 mph /  8.5 km/h 75 % 0.0 in /  0 mm
23:57 5.0 °F /  -15 °C 0.9 °F /  -17.3 °C 1011.7 in /  34256.2 hPa West 5.6 mph /  9 km/h 5.6 mph /  9 km/h 75 % 0.0 in /  0 mm
23:58 5.0 °F /  -15 °C 0.9 °F /  -17.3 °C 1011.7 in /  34256.2 hPa West 5.6 mph /  9 km/h 5.6 mph /  9 km/h 75 % 0.0 in /  0 mm
Meteo Sesrovires
Elogis d' Weather Underground - 3.5 mb

Guio original per  Jim McMurry - jmcmurry@mwt.net Adaptat per a la plantilla per  Wim van der Kuil - Leuven-Template.eu

Trobareu la nostra informacio del temps tambe a:

Weather Underground

AWEKAS